createdAt,value
2023-05-02T00:00:55.314Z,0.70
2023-05-02T00:03:22.226Z,0.55
2023-05-02T00:05:48.864Z,1.15
2023-05-02T00:08:16.478Z,1.00
2023-05-02T00:10:43.109Z,0.90
2023-05-02T00:13:10.895Z,1.38
2023-05-02T00:15:37.546Z,0.77
2023-05-02T00:18:04.231Z,0.95
2023-05-02T00:20:31.158Z,0.60
2023-05-02T00:22:57.860Z,0.80
2023-05-02T00:25:24.646Z,0.88
2023-05-02T00:27:51.356Z,0.90
2023-05-02T00:30:18.593Z,0.60
2023-05-02T00:32:45.500Z,0.95
2023-05-02T00:35:12.223Z,1.17
2023-05-02T00:37:39.196Z,0.70
2023-05-02T00:40:07.954Z,0.70
2023-05-02T00:42:36.098Z,1.27
2023-05-02T00:45:06.906Z,1.70
2023-05-02T00:47:34.380Z,0.98
2023-05-02T00:50:01.991Z,1.20
2023-05-02T00:52:29.251Z,1.52
2023-05-02T00:54:56.486Z,0.88
2023-05-02T00:57:23.384Z,1.38
2023-05-02T00:59:51.247Z,2.35
2023-05-02T01:02:32.411Z,0.70
2023-05-02T01:05:17.287Z,1.90
2023-05-02T01:08:10.383Z,1.50
2023-05-02T01:10:52.998Z,1.98
2023-05-02T01:13:28.982Z,1.00
2023-05-02T01:15:58.833Z,2.20
2023-05-02T01:18:30.149Z,1.35
2023-05-02T01:21:07.008Z,2.45
2023-05-02T01:23:55.024Z,2.13
2023-05-02T01:26:32.645Z,3.15
2023-05-02T01:29:01.249Z,2.05
2023-05-02T01:31:39.895Z,1.52
2023-05-02T01:34:10.390Z,1.75
2023-05-02T01:36:43.650Z,2.40
2023-05-02T01:39:13.261Z,1.30
2023-05-02T01:41:41.647Z,1.80
2023-05-02T01:44:09.705Z,1.58
2023-05-02T01:46:39.972Z,2.55
2023-05-02T01:49:07.982Z,1.83
2023-05-02T01:51:40.553Z,2.00
2023-05-02T01:54:09.416Z,1.73
2023-05-02T01:56:39.175Z,3.13
2023-05-02T01:59:09.693Z,3.08
2023-05-02T02:01:38.609Z,2.30
2023-05-02T02:04:07.140Z,2.35
2023-05-02T02:06:34.296Z,3.03
2023-05-02T02:09:01.340Z,2.80
2023-05-02T02:11:35.358Z,3.35
2023-05-02T02:14:09.824Z,2.75
2023-05-02T02:16:39.535Z,3.97
2023-05-02T02:19:10.227Z,3.03
2023-05-02T02:21:38.486Z,3.13
2023-05-02T02:24:07.477Z,3.50
2023-05-02T02:26:35.201Z,3.65
2023-05-02T02:29:01.905Z,3.95
2023-05-02T02:31:36.104Z,3.72
2023-05-02T02:34:03.375Z,3.53
2023-05-02T02:36:54.530Z,5.43
2023-05-02T02:39:35.956Z,3.13
2023-05-02T02:42:36.107Z,3.30
2023-05-02T02:45:15.036Z,2.22
2023-05-02T02:47:49.276Z,3.15
2023-05-02T02:50:46.841Z,1.60
2023-05-02T02:53:19.463Z,2.28
2023-05-02T02:55:53.586Z,2.13
2023-05-02T02:58:28.462Z,2.30
2023-05-02T03:00:55.886Z,2.38
2023-05-02T03:03:28.872Z,2.35
2023-05-02T03:05:57.154Z,2.28
2023-05-02T03:08:24.730Z,2.85
2023-05-02T03:10:51.523Z,1.52
2023-05-02T03:13:18.548Z,2.42
2023-05-02T03:15:52.439Z,3.10
2023-05-02T03:18:23.434Z,3.28
2023-05-02T03:20:50.628Z,2.33
2023-05-02T03:23:17.483Z,1.58
2023-05-02T03:25:44.861Z,1.50
2023-05-02T03:28:17.639Z,1.83
2023-05-02T03:30:47.149Z,3.30
2023-05-02T03:33:14.155Z,2.33
2023-05-02T03:35:43.310Z,2.95
2023-05-02T03:38:11.768Z,1.52
2023-05-02T03:40:38.825Z,2.30
2023-05-02T03:43:09.801Z,2.47
2023-05-02T03:45:36.572Z,2.25
2023-05-02T03:48:03.356Z,2.88
2023-05-02T03:50:30.942Z,2.17
2023-05-02T03:52:57.948Z,2.85
2023-05-02T03:55:42.733Z,2.20
2023-05-02T03:58:14.842Z,1.83
2023-05-02T04:00:42.332Z,1.45
2023-05-02T04:03:09.392Z,2.95
2023-05-02T04:05:40.547Z,1.70
2023-05-02T04:08:08.262Z,2.85
2023-05-02T04:10:35.174Z,1.55
2023-05-02T04:13:05.190Z,2.13
2023-05-02T04:15:33.580Z,1.98
2023-05-02T04:18:01.256Z,3.78
2023-05-02T04:20:30.149Z,1.13
2023-05-02T04:22:58.126Z,2.55
2023-05-02T04:25:25.327Z,3.72
2023-05-02T04:27:55.189Z,1.55
2023-05-02T04:30:23.570Z,1.67
2023-05-02T04:32:59.980Z,2.58
2023-05-02T04:35:31.158Z,2.58
2023-05-02T04:37:58.019Z,2.17
2023-05-02T04:40:26.088Z,2.22
2023-05-02T04:42:59.832Z,1.63
2023-05-02T04:45:36.552Z,1.75
2023-05-02T04:48:06.653Z,2.05
2023-05-02T04:50:33.436Z,1.77
2023-05-02T04:53:00.097Z,0.70
2023-05-02T04:55:27.811Z,2.35
2023-05-02T04:57:54.444Z,2.20
2023-05-02T05:00:21.855Z,1.05
2023-05-02T05:02:48.634Z,1.88
2023-05-02T05:05:16.327Z,1.48
2023-05-02T05:07:43.442Z,0.98
2023-05-02T05:10:11.435Z,3.97
2023-05-02T05:12:44.886Z,1.23
2023-05-02T05:15:12.034Z,0.70
2023-05-02T05:17:42.272Z,1.27
2023-05-02T05:20:10.161Z,1.77
2023-05-02T05:22:42.314Z,1.92
2023-05-02T05:25:11.498Z,0.83
2023-05-02T05:27:38.757Z,0.40
2023-05-02T05:30:08.948Z,0.50
2023-05-02T05:32:35.831Z,1.27
2023-05-02T05:35:02.619Z,0.87
2023-05-02T05:37:29.348Z,1.00
2023-05-02T05:39:58.059Z,0.40
2023-05-02T05:42:25.671Z,0.80
2023-05-02T05:44:55.962Z,1.17
2023-05-02T05:47:22.769Z,0.43
2023-05-02T05:49:55.399Z,0.90
2023-05-02T05:52:25.185Z,0.50
2023-05-02T05:54:55.688Z,1.30
2023-05-02T05:57:23.849Z,0.93
2023-05-02T05:59:52.028Z,1.70
2023-05-02T06:02:19.750Z,0.87
2023-05-02T06:04:46.918Z,1.47
2023-05-02T06:07:15.605Z,0.80
2023-05-02T06:09:42.255Z,0.90
2023-05-02T06:12:09.220Z,0.73
2023-05-02T06:14:37.030Z,0.60
2023-05-02T06:17:03.687Z,0.67
2023-05-02T06:19:30.899Z,0.87
2023-05-02T06:21:57.570Z,0.70
2023-05-02T06:24:24.200Z,0.50
2023-05-02T06:26:51.711Z,0.77
2023-05-02T06:29:18.332Z,0.43
2023-05-02T06:31:45.060Z,1.50
2023-05-02T06:34:12.047Z,0.90
2023-05-02T06:36:38.674Z,0.50
2023-05-02T06:39:05.479Z,0.70
2023-05-02T06:41:32.080Z,1.33
2023-05-02T06:43:58.714Z,1.57
2023-05-02T06:46:29.484Z,1.00
2023-05-02T06:48:56.193Z,0.97
2023-05-02T06:51:22.897Z,1.57
2023-05-02T06:53:49.694Z,0.90
2023-05-02T06:56:16.338Z,0.60
2023-05-02T06:58:43.027Z,0.40
2023-05-02T07:01:09.789Z,0.60
2023-05-02T07:03:36.422Z,1.07
2023-05-02T07:06:03.533Z,1.57
2023-05-02T07:08:30.238Z,2.10
2023-05-02T07:10:56.951Z,0.63
2023-05-02T07:13:23.553Z,0.93
2023-05-02T07:15:50.221Z,1.00
2023-05-02T07:18:16.951Z,0.60
2023-05-02T07:20:43.663Z,1.50
2023-05-02T07:23:10.399Z,0.70
2023-05-02T07:25:37.527Z,1.17
2023-05-02T07:28:04.293Z,0.77
2023-05-02T07:30:30.976Z,0.40
2023-05-02T07:32:57.911Z,1.20
2023-05-02T07:35:24.585Z,0.43
2023-05-02T07:37:51.400Z,0.60
2023-05-02T07:40:18.321Z,0.93
2023-05-02T07:42:44.949Z,1.17
2023-05-02T07:45:11.620Z,2.43
2023-05-02T07:47:38.299Z,0.90
2023-05-02T07:50:05.370Z,0.63
2023-05-02T07:52:32.027Z,0.50
2023-05-02T07:54:58.675Z,0.30
2023-05-02T07:57:26.750Z,0.60
2023-05-02T07:59:53.432Z,0.87
2023-05-02T08:02:20.746Z,0.47
2023-05-02T08:04:48.073Z,1.27
2023-05-02T08:07:14.841Z,0.60
2023-05-02T08:09:41.428Z,1.03
2023-05-02T08:12:08.181Z,1.13
2023-05-02T08:14:34.859Z,0.60
2023-05-02T08:17:01.558Z,0.60
2023-05-02T08:19:28.209Z,1.17
2023-05-02T08:21:55.492Z,1.37
2023-05-02T08:24:22.554Z,1.37
2023-05-02T08:26:49.233Z,0.60
2023-05-02T08:29:16.175Z,0.50
2023-05-02T08:31:43.051Z,2.47
2023-05-02T08:34:09.797Z,0.97
2023-05-02T08:36:37.211Z,0.53
2023-05-02T08:39:04.097Z,1.00
2023-05-02T08:41:31.278Z,0.83
2023-05-02T08:43:59.041Z,1.43
2023-05-02T08:46:26.570Z,0.40
2023-05-02T08:48:54.162Z,0.93
2023-05-02T08:51:24.231Z,1.03
2023-05-02T08:53:52.752Z,1.13
2023-05-02T08:56:19.540Z,1.17
2023-05-02T08:58:46.160Z,1.70
2023-05-02T09:01:17.493Z,0.67
2023-05-02T09:03:45.710Z,0.63
2023-05-02T09:06:20.534Z,0.70
2023-05-02T09:08:49.457Z,0.73
2023-05-02T09:11:16.958Z,0.80
2023-05-02T09:13:44.829Z,1.03
2023-05-02T09:16:13.889Z,0.67
2023-05-02T09:18:42.851Z,0.40
2023-05-02T09:21:19.744Z,1.27
2023-05-02T09:23:55.708Z,0.93
2023-05-02T09:26:33.588Z,1.70
2023-05-02T09:29:09.276Z,0.70
2023-05-02T09:34:11.113Z,1.33
2023-05-02T09:36:45.846Z,0.80
2023-05-02T09:39:15.038Z,2.17
2023-05-02T09:41:43.106Z,0.70
2023-05-02T09:44:18.477Z,2.40
2023-05-02T09:46:57.512Z,0.97
2023-05-02T09:49:40.990Z,0.90
2023-05-02T09:52:15.829Z,0.67
2023-05-02T09:54:42.666Z,1.57
2023-05-02T09:57:10.575Z,0.67
2023-05-02T09:59:37.303Z,0.40
2023-05-02T10:02:05.311Z,1.03
2023-05-02T10:04:33.548Z,1.90
2023-05-02T10:07:02.367Z,2.23
2023-05-02T10:09:32.549Z,1.03
2023-05-02T10:12:06.707Z,1.17
2023-05-02T10:14:41.610Z,0.70
2023-05-02T10:17:16.464Z,0.60
2023-05-02T10:20:05.003Z,0.40
2023-05-02T10:22:34.061Z,2.00
2023-05-02T10:25:02.207Z,0.70
2023-05-02T10:27:33.060Z,1.03
2023-05-02T10:30:01.056Z,1.70
2023-05-02T10:32:33.408Z,1.23
2023-05-02T10:35:04.951Z,1.58
2023-05-02T10:37:36.108Z,1.63
2023-05-02T10:40:03.334Z,0.68
2023-05-02T10:42:30.721Z,0.70
2023-05-02T10:44:57.949Z,1.17
2023-05-02T10:47:26.935Z,0.40
2023-05-02T10:50:02.943Z,0.75
2023-05-02T10:52:34.136Z,1.27
2023-05-02T10:55:20.769Z,0.50
2023-05-02T10:58:06.481Z,1.23
2023-05-02T11:00:34.276Z,0.90
2023-05-02T11:03:01.813Z,0.55
2023-05-02T11:05:29.091Z,0.47
2023-05-02T11:08:22.992Z,1.40
2023-05-02T11:10:50.268Z,1.05
2023-05-02T11:13:36.857Z,1.80
2023-05-02T11:16:03.982Z,0.45
2023-05-02T11:19:02.716Z,0.90
2023-05-02T11:21:31.838Z,0.40
2023-05-02T11:24:36.084Z,0.40
2023-05-02T11:27:35.615Z,0.52
2023-05-02T11:30:06.740Z,0.82
2023-05-02T11:32:46.059Z,0.93
2023-05-02T11:35:32.770Z,0.30
2023-05-02T11:38:03.119Z,1.00
2023-05-02T11:40:30.585Z,0.75
2023-05-02T11:42:59.011Z,0.73
2023-05-02T11:45:39.263Z,0.40
2023-05-02T11:48:07.223Z,0.40
2023-05-02T11:50:55.135Z,0.70
2023-05-02T11:53:24.986Z,0.50
2023-05-02T11:55:57.502Z,0.60
2023-05-02T11:58:33.231Z,0.40
2023-05-02T12:01:13.250Z,0.60
2023-05-02T12:03:40.659Z,0.95
2023-05-02T12:06:15.245Z,0.50
2023-05-02T12:08:45.572Z,0.70
2023-05-02T12:11:16.553Z,1.10
2023-05-02T12:13:48.085Z,1.30
2023-05-02T12:16:15.877Z,0.88
2023-05-02T12:18:43.157Z,0.65
2023-05-02T12:21:10.126Z,1.00
2023-05-02T12:23:37.654Z,1.20
2023-05-02T12:26:18.368Z,0.77
2023-05-02T12:28:52.177Z,0.90
2023-05-02T12:31:19.577Z,1.85
2023-05-02T12:33:51.694Z,0.60
2023-05-02T12:36:19.135Z,1.00
2023-05-02T12:38:54.877Z,0.73
2023-05-02T12:41:51.496Z,0.40
2023-05-02T12:44:36.324Z,0.85
2023-05-02T12:47:02.977Z,1.15
2023-05-02T12:49:29.893Z,0.70
2023-05-02T12:51:56.839Z,0.80
2023-05-02T12:54:23.517Z,1.30
2023-05-02T12:56:52.065Z,0.50
2023-05-02T12:59:27.568Z,0.90
2023-05-02T13:01:54.426Z,0.55
2023-05-02T13:04:21.105Z,0.40
2023-05-02T13:06:48.075Z,0.50
2023-05-02T13:09:14.733Z,1.20
2023-05-02T13:11:42.464Z,0.47
2023-05-02T13:14:11.353Z,0.93
2023-05-02T13:16:38.172Z,0.60
2023-05-02T13:19:05.113Z,1.02
2023-05-02T13:21:31.751Z,0.73
2023-05-02T13:23:58.832Z,1.42
2023-05-02T13:26:25.500Z,0.50
2023-05-02T13:28:52.121Z,1.33
2023-05-02T13:31:18.763Z,1.08
2023-05-02T13:33:45.567Z,0.75
2023-05-02T13:36:12.189Z,0.40
2023-05-02T13:38:39.366Z,1.58
2023-05-02T13:41:06.047Z,1.00
2023-05-02T13:43:32.645Z,1.13
2023-05-02T13:45:59.358Z,0.63
2023-05-02T13:48:26.092Z,2.17
2023-05-02T13:50:52.706Z,1.20
2023-05-02T13:53:19.364Z,1.05
2023-05-02T13:55:46.070Z,0.90
2023-05-02T13:58:12.665Z,0.68
2023-05-02T14:00:39.464Z,0.90
2023-05-02T14:03:07.171Z,0.57
2023-05-02T14:05:33.919Z,0.50
2023-05-02T14:08:00.637Z,0.68
2023-05-02T14:10:27.261Z,0.70
2023-05-02T14:12:53.900Z,1.05
2023-05-02T14:15:20.906Z,0.60
2023-05-02T14:17:48.974Z,0.70
2023-05-02T14:20:16.339Z,0.60
2023-05-02T14:22:42.904Z,0.85
2023-05-02T14:25:09.680Z,0.65
2023-05-02T14:27:36.370Z,0.77
2023-05-02T14:30:03.238Z,0.60
2023-05-02T14:32:30.056Z,0.52
2023-05-02T14:34:56.668Z,0.88
2023-05-02T14:37:23.319Z,0.50
2023-05-02T14:39:54.725Z,1.33
2023-05-02T14:42:23.230Z,0.82
2023-05-02T14:44:49.899Z,0.40
2023-05-02T14:47:16.741Z,1.08
2023-05-02T14:49:43.474Z,0.60
2023-05-02T14:52:10.105Z,0.85
2023-05-02T14:54:36.723Z,0.95
2023-05-02T14:57:03.812Z,1.63
2023-05-02T14:59:31.376Z,0.40
2023-05-02T15:01:58.162Z,1.40
2023-05-02T15:04:27.121Z,0.95
2023-05-02T15:06:55.289Z,0.65
2023-05-02T15:09:23.206Z,0.93
2023-05-02T15:11:49.840Z,0.85
2023-05-02T15:14:16.440Z,0.40
2023-05-02T15:16:43.188Z,0.40
2023-05-02T15:19:10.216Z,0.52
2023-05-02T15:21:37.295Z,1.00
2023-05-02T15:24:04.120Z,0.57
2023-05-02T15:26:30.874Z,1.23
2023-05-02T15:28:57.842Z,0.50
2023-05-02T15:31:24.611Z,0.82
2023-05-02T15:33:51.702Z,1.15
2023-05-02T15:36:18.356Z,0.50
2023-05-02T15:38:44.968Z,0.57
2023-05-02T15:41:11.572Z,0.50
2023-05-02T15:43:38.275Z,0.73
2023-05-02T15:46:05.088Z,0.38
2023-05-02T15:48:35.693Z,1.50
2023-05-02T15:51:03.045Z,0.50
2023-05-02T15:53:29.947Z,0.60
2023-05-02T15:55:56.876Z,2.15
2023-05-02T15:58:23.537Z,1.02
2023-05-02T16:00:52.229Z,0.52
2023-05-02T16:03:18.970Z,0.75
2023-05-02T16:05:46.334Z,1.15
2023-05-02T16:08:13.083Z,0.63
2023-05-02T16:10:40.295Z,1.15
2023-05-02T16:13:06.906Z,0.60
2023-05-02T16:15:33.565Z,0.43
2023-05-02T16:18:00.243Z,0.30
2023-05-02T16:20:28.316Z,0.52
2023-05-02T16:22:55.206Z,0.45
2023-05-02T16:25:21.887Z,0.75
2023-05-02T16:27:48.499Z,0.50
2023-05-02T16:30:15.636Z,0.60
2023-05-02T16:32:42.322Z,0.32
2023-05-02T16:35:12.306Z,0.50
2023-05-02T16:37:42.697Z,0.50
2023-05-02T16:40:10.493Z,0.60
2023-05-02T16:42:37.376Z,0.60
2023-05-02T16:45:04.543Z,1.92
2023-05-02T16:47:33.395Z,0.65
2023-05-02T16:50:01.377Z,0.35
2023-05-02T16:52:28.595Z,0.40
2023-05-02T16:54:55.446Z,0.70
2023-05-02T16:57:22.181Z,0.40
2023-05-02T16:59:50.096Z,0.70
2023-05-02T17:02:17.823Z,0.40
2023-05-02T17:04:44.524Z,0.50
2023-05-02T17:07:12.160Z,0.60
2023-05-02T17:09:40.027Z,0.30
2023-05-02T17:12:08.222Z,0.90
2023-05-02T17:14:34.909Z,0.40
2023-05-02T17:17:01.665Z,0.70
2023-05-02T17:19:28.695Z,0.50
2023-05-02T17:21:57.743Z,0.88
2023-05-02T17:24:24.594Z,0.40
2023-05-02T17:26:51.465Z,0.60
2023-05-02T17:29:18.154Z,0.40
2023-05-02T17:31:44.801Z,0.40
2023-05-02T17:34:11.376Z,0.50
2023-05-02T17:36:41.722Z,1.17
2023-05-02T17:39:08.917Z,0.30
2023-05-02T17:41:36.584Z,0.50
2023-05-02T17:44:04.696Z,0.30
2023-05-02T17:46:31.697Z,0.83
2023-05-02T17:48:58.391Z,0.90
2023-05-02T17:51:24.991Z,0.47
2023-05-02T17:53:52.074Z,0.63
2023-05-02T17:56:18.910Z,0.30
2023-05-02T17:58:45.752Z,0.63
2023-05-02T18:01:13.813Z,0.63
2023-05-02T18:03:40.969Z,0.80
2023-05-02T18:06:08.069Z,0.30
2023-05-02T18:08:34.901Z,0.50
2023-05-02T18:11:03.093Z,0.40
2023-05-02T18:13:29.806Z,0.40
2023-05-02T18:15:57.497Z,0.50
2023-05-02T18:18:24.483Z,0.40
2023-05-02T18:20:51.186Z,0.43
2023-05-02T18:23:18.046Z,0.40
2023-05-02T18:25:44.889Z,0.40
2023-05-02T18:28:13.190Z,0.50
2023-05-02T18:30:40.300Z,1.03
2023-05-02T18:33:08.001Z,0.40
2023-05-02T18:35:35.481Z,0.73
2023-05-02T18:38:02.512Z,0.30
2023-05-02T18:40:29.139Z,0.50
2023-05-02T18:42:55.895Z,1.17
2023-05-02T18:45:22.514Z,0.53
2023-05-02T18:47:50.993Z,0.90
2023-05-02T18:50:18.187Z,0.40
2023-05-02T18:52:44.794Z,0.60
2023-05-02T18:55:11.449Z,0.50
2023-05-02T18:57:38.092Z,0.40
2023-05-02T19:00:09.031Z,0.40
2023-05-02T19:02:35.942Z,0.60
2023-05-02T19:05:07.075Z,0.60
2023-05-02T19:07:34.619Z,0.40
2023-05-02T19:10:02.329Z,0.83
2023-05-02T19:12:28.996Z,1.70
2023-05-02T19:14:55.587Z,0.83
2023-05-02T19:17:22.379Z,0.40
2023-05-02T19:19:50.828Z,0.40
2023-05-02T19:22:17.441Z,0.80
2023-05-02T19:24:44.039Z,0.40
2023-05-02T19:27:10.783Z,0.47
2023-05-02T19:29:37.761Z,0.30
2023-05-02T19:32:04.785Z,0.40
2023-05-02T19:34:31.753Z,0.40
2023-05-02T19:36:58.412Z,0.40
2023-05-02T19:39:25.052Z,0.47
2023-05-02T19:41:51.843Z,0.40
2023-05-02T19:44:18.558Z,0.40
2023-05-02T19:46:45.257Z,0.40
2023-05-02T19:49:11.916Z,0.57
2023-05-02T19:51:38.531Z,0.40
2023-05-02T19:54:05.198Z,0.60
2023-05-02T19:56:31.797Z,0.40
2023-05-02T19:58:58.763Z,1.23
2023-05-02T20:01:26.950Z,0.63
2023-05-02T20:03:54.701Z,0.40
2023-05-02T20:06:21.424Z,0.70
2023-05-02T20:08:48.074Z,0.50
2023-05-02T20:11:14.660Z,1.63
2023-05-02T20:13:41.305Z,0.43
2023-05-02T20:16:08.035Z,0.83
2023-05-02T20:18:34.656Z,0.43
2023-05-02T20:21:01.277Z,0.50
2023-05-02T20:23:27.911Z,0.50
2023-05-02T20:25:54.693Z,0.50
2023-05-02T20:28:21.318Z,0.60
2023-05-02T20:30:48.005Z,0.60
2023-05-02T20:33:16.580Z,0.80
2023-05-02T20:35:44.618Z,0.50
2023-05-02T20:38:11.927Z,0.63
2023-05-02T20:40:42.564Z,0.53
2023-05-02T20:43:09.268Z,0.40
2023-05-02T20:45:35.907Z,0.37
2023-05-02T20:48:02.528Z,0.40
2023-05-02T20:50:29.240Z,0.50
2023-05-02T20:52:56.437Z,0.40
2023-05-02T20:55:23.302Z,0.40
2023-05-02T20:57:52.979Z,0.60
2023-05-02T21:00:22.593Z,0.40
2023-05-02T21:02:49.820Z,0.50
2023-05-02T21:05:16.626Z,0.50
2023-05-02T21:07:44.614Z,0.63
2023-05-02T21:10:11.344Z,0.40
2023-05-02T21:12:38.004Z,1.00
2023-05-02T21:15:05.406Z,0.50
2023-05-02T21:17:32.098Z,0.30
2023-05-02T21:19:58.771Z,0.50
2023-05-02T21:22:25.631Z,1.40
2023-05-02T21:24:52.247Z,0.60
2023-05-02T21:27:18.885Z,0.93
2023-05-02T21:29:45.558Z,0.73
2023-05-02T21:32:12.226Z,0.50
2023-05-02T21:34:38.891Z,0.40
2023-05-02T21:37:06.517Z,0.40
2023-05-02T21:39:33.150Z,0.40
2023-05-02T21:42:01.360Z,0.80
2023-05-02T21:44:28.007Z,0.87
2023-05-02T21:46:54.716Z,0.50
2023-05-02T21:49:21.727Z,0.50
2023-05-02T21:51:48.318Z,0.40
2023-05-02T21:54:14.985Z,1.00
2023-05-02T21:56:41.670Z,0.30
2023-05-02T21:59:08.278Z,0.30
2023-05-02T22:01:34.905Z,0.50
2023-05-02T22:04:01.567Z,0.57
2023-05-02T22:06:28.424Z,0.40
2023-05-02T22:08:55.086Z,0.40
2023-05-02T22:11:24.112Z,0.50
2023-05-02T22:13:50.870Z,0.50
2023-05-02T22:16:17.603Z,0.50
2023-05-02T22:18:44.573Z,0.40
2023-05-02T22:21:11.968Z,0.50
2023-05-02T22:23:38.882Z,0.40
2023-05-02T22:26:05.789Z,0.70
2023-05-02T22:28:32.473Z,0.60
2023-05-02T22:30:59.149Z,0.40
2023-05-02T22:33:26.006Z,0.50
2023-05-02T22:35:52.635Z,0.50
2023-05-02T22:38:19.959Z,0.50
2023-05-02T22:40:46.698Z,1.67
2023-05-02T22:43:13.336Z,0.87
2023-05-02T22:45:40.599Z,0.77
2023-05-02T22:48:07.954Z,0.40
2023-05-02T22:50:34.628Z,0.70
2023-05-02T22:53:03.690Z,0.40
2023-05-02T22:55:30.616Z,0.40
2023-05-02T22:57:57.565Z,0.53
2023-05-02T23:00:24.845Z,0.73
2023-05-02T23:02:51.587Z,0.50
2023-05-02T23:05:18.691Z,0.77
2023-05-02T23:07:45.500Z,0.50
2023-05-02T23:10:12.151Z,0.43
2023-05-02T23:12:39.078Z,0.60
2023-05-02T23:15:06.826Z,0.40
2023-05-02T23:17:33.543Z,0.70
2023-05-02T23:20:00.453Z,0.70
2023-05-02T23:22:27.317Z,2.10
2023-05-02T23:24:54.046Z,0.70
2023-05-02T23:27:20.672Z,0.87
2023-05-02T23:29:48.888Z,0.40
2023-05-02T23:32:16.480Z,1.47
2023-05-02T23:34:43.757Z,0.40
2023-05-02T23:37:11.448Z,0.50
2023-05-02T23:39:38.128Z,0.40
2023-05-02T23:42:04.857Z,0.47
2023-05-02T23:44:31.535Z,0.50
2023-05-02T23:47:01.380Z,0.50
2023-05-02T23:49:28.127Z,0.60
2023-05-02T23:51:54.755Z,0.50
2023-05-02T23:54:21.350Z,0.40
2023-05-02T23:56:48.013Z,0.40
2023-05-02T23:59:15.120Z,0.80
